createdAt,value
2019-01-21T00:01:51.322Z,531.93
2019-01-21T00:04:21.997Z,503.70
2019-01-21T00:06:52.625Z,496.80
2019-01-21T00:09:23.315Z,472.00
2019-01-21T00:11:53.925Z,450.37
2019-01-21T00:14:24.597Z,456.57
2019-01-21T00:16:55.220Z,450.83
2019-01-21T00:19:26.046Z,444.83
2019-01-21T00:21:56.682Z,425.43
2019-01-21T00:24:27.245Z,428.70
2019-01-21T00:26:57.851Z,427.30
2019-01-21T00:29:28.345Z,398.53
2019-01-21T00:31:58.897Z,397.87
2019-01-21T00:34:29.523Z,438.40
2019-01-21T00:37:03.469Z,447.13
2019-01-21T00:39:32.466Z,445.90
2019-01-21T00:42:03.006Z,440.47
2019-01-21T00:44:33.525Z,390.53
2019-01-21T00:47:04.177Z,408.23
2019-01-21T00:49:34.740Z,372.53
2019-01-21T00:52:05.317Z,357.50
2019-01-21T00:54:35.906Z,350.53
2019-01-21T00:57:06.488Z,358.47
2019-01-21T00:59:37.165Z,322.80
2019-01-21T01:02:07.817Z,320.30
2019-01-21T01:04:38.360Z,297.23
2019-01-21T01:07:09.136Z,292.90
2019-01-21T01:09:39.859Z,271.37
2019-01-21T01:12:10.525Z,253.27
2019-01-21T01:14:41.025Z,270.73
2019-01-21T01:17:11.717Z,278.70
2019-01-21T01:19:42.297Z,242.97
2019-01-21T01:22:13.277Z,248.43
2019-01-21T01:24:43.919Z,235.50
2019-01-21T01:27:14.455Z,213.80
2019-01-21T01:29:45.175Z,208.10
2019-01-21T01:32:15.897Z,198.10
2019-01-21T01:34:46.499Z,195.67
2019-01-21T01:37:17.097Z,170.13
2019-01-21T01:39:47.697Z,156.13
2019-01-21T01:42:18.245Z,186.53
2019-01-21T01:44:48.737Z,182.87
2019-01-21T01:47:19.554Z,151.20
2019-01-21T01:49:50.132Z,173.83
2019-01-21T01:52:20.797Z,156.10
2019-01-21T01:54:51.445Z,133.50
2019-01-21T01:57:21.985Z,135.97
2019-01-21T01:59:52.777Z,136.10
2019-01-21T02:02:24.990Z,129.70
2019-01-21T02:04:55.723Z,146.03
2019-01-21T02:07:26.285Z,121.60
2019-01-21T02:09:56.863Z,123.93
2019-01-21T02:12:27.545Z,117.43
2019-01-21T02:14:58.198Z,120.17
2019-01-21T02:17:28.877Z,114.83
2019-01-21T02:20:01.924Z,124.73
2019-01-21T02:22:35.377Z,114.27
2019-01-21T02:25:07.477Z,115.20
2019-01-21T02:28:19.623Z,112.23
2019-01-21T02:31:36.305Z,115.40
2019-01-21T02:34:49.938Z,125.43
2019-01-21T02:38:07.137Z,107.30
2019-01-21T02:40:50.737Z,103.30
2019-01-21T02:44:18.587Z,99.43
2019-01-21T02:47:46.857Z,95.83
2019-01-21T02:51:03.624Z,99.77
2019-01-21T02:54:08.777Z,117.97
2019-01-21T02:57:27.366Z,109.50
2019-01-21T03:00:55.385Z,106.83
2019-01-21T03:03:59.318Z,106.20
2019-01-21T03:07:20.673Z,95.93
2019-01-21T03:10:21.177Z,94.03
2019-01-21T03:13:23.491Z,101.37
2019-01-21T03:16:46.737Z,109.10
2019-01-21T03:20:02.586Z,101.70
2019-01-21T03:23:23.677Z,101.70
2019-01-21T03:26:37.699Z,94.70
2019-01-21T03:29:32.897Z,108.73
2019-01-21T03:32:37.362Z,116.23
2019-01-21T03:35:58.048Z,117.27
2019-01-21T03:39:20.163Z,106.70
2019-01-21T03:42:11.458Z,109.13
2019-01-21T03:45:33.683Z,111.27
2019-01-21T03:48:23.508Z,116.03
2019-01-21T03:51:38.638Z,105.77
2019-01-21T03:54:23.439Z,106.40
2019-01-21T03:57:51.397Z,114.97
2019-01-21T04:00:40.849Z,114.60
2019-01-21T04:03:58.438Z,115.50
2019-01-21T04:06:55.405Z,109.70
2019-01-21T04:10:18.367Z,105.60
2019-01-21T04:13:26.988Z,112.57
2019-01-21T04:16:43.478Z,100.73
2019-01-21T04:20:05.024Z,116.17
2019-01-21T04:23:19.125Z,108.40
2019-01-21T04:26:09.077Z,116.07
2019-01-21T04:29:27.338Z,104.13
2019-01-21T04:32:27.797Z,106.83
2019-01-21T04:35:24.404Z,108.93
2019-01-21T04:38:29.937Z,102.37
2019-01-21T04:41:42.857Z,96.07
2019-01-21T04:44:55.078Z,92.17
2019-01-21T04:48:17.198Z,96.03
2019-01-21T04:51:35.807Z,114.70
2019-01-21T04:54:52.206Z,115.90
2019-01-21T04:58:20.205Z,102.67
2019-01-21T05:01:35.754Z,104.67
2019-01-21T05:04:49.646Z,109.20
2019-01-21T05:07:54.297Z,114.47
2019-01-21T05:11:09.225Z,111.83
2019-01-21T05:14:31.967Z,107.00
2019-01-21T05:17:42.088Z,113.47
2019-01-21T05:21:10.245Z,114.30
2019-01-21T05:24:14.677Z,115.17
2019-01-21T05:27:00.914Z,109.30
2019-01-21T05:30:03.425Z,114.10
2019-01-21T05:33:18.899Z,120.07
2019-01-21T05:36:39.129Z,125.17
2019-01-21T05:39:47.525Z,127.03
2019-01-21T05:43:04.905Z,115.03
2019-01-21T05:46:08.554Z,112.80
2019-01-21T05:49:15.888Z,116.57
2019-01-21T05:52:35.848Z,122.80
2019-01-21T05:55:47.627Z,121.87
2019-01-21T05:59:09.352Z,129.93
2019-01-21T06:02:31.348Z,121.47
2019-01-21T06:05:59.495Z,124.50
2019-01-21T06:09:20.982Z,133.13
2019-01-21T06:12:14.694Z,118.60
2019-01-21T06:15:21.018Z,129.43
2019-01-21T06:18:29.406Z,127.70
2019-01-21T06:21:57.478Z,140.53
2019-01-21T06:25:12.341Z,132.70
2019-01-21T06:28:15.559Z,139.37
2019-01-21T06:31:12.065Z,132.73
2019-01-21T06:34:21.205Z,135.90
2019-01-21T06:37:18.347Z,136.70
2019-01-21T06:40:39.017Z,129.07
2019-01-21T06:43:38.426Z,122.00
2019-01-21T06:47:06.507Z,134.63
2019-01-21T06:50:21.368Z,131.53
2019-01-21T06:53:49.805Z,123.23
2019-01-21T06:57:12.157Z,128.77
2019-01-21T07:00:29.640Z,113.33
2019-01-21T07:03:46.566Z,132.47
2019-01-21T07:07:00.244Z,129.57
2019-01-21T07:10:05.285Z,150.63
2019-01-21T07:13:33.277Z,133.10
2019-01-21T07:16:54.743Z,150.20
2019-01-21T07:19:41.676Z,129.20
2019-01-21T07:22:56.854Z,124.23
2019-01-21T07:25:58.826Z,136.43
2019-01-21T07:29:01.646Z,127.47
2019-01-21T07:32:12.284Z,129.50
2019-01-21T07:35:40.285Z,135.53
2019-01-21T07:38:47.239Z,129.97
2019-01-21T07:41:51.020Z,136.97
2019-01-21T07:45:11.618Z,136.13
2019-01-21T07:48:21.703Z,147.90
2019-01-21T07:51:25.653Z,127.13
2019-01-21T07:54:46.943Z,119.50
2019-01-21T07:57:54.023Z,132.57
2019-01-21T08:01:10.222Z,122.57
2019-01-21T08:04:18.647Z,126.43
2019-01-21T08:07:19.977Z,117.23
2019-01-21T08:10:38.825Z,131.73
2019-01-21T08:13:46.634Z,133.43
2019-01-21T08:17:01.251Z,125.53
2019-01-21T08:20:14.325Z,119.10
2019-01-21T08:23:17.578Z,123.57
2019-01-21T08:26:25.397Z,125.63
2019-01-21T08:29:25.019Z,113.90
2019-01-21T08:32:42.161Z,122.27
2019-01-21T08:35:54.645Z,126.17
2019-01-21T08:38:59.992Z,117.60
2019-01-21T08:42:17.227Z,142.87
2019-01-21T08:45:21.608Z,114.77
2019-01-21T08:48:21.029Z,129.43
2019-01-21T08:51:43.042Z,134.60
2019-01-21T08:54:32.256Z,139.90
2019-01-21T08:57:51.904Z,114.23
2019-01-21T09:01:04.522Z,130.70
2019-01-21T09:04:32.341Z,129.60
2019-01-21T09:07:39.247Z,130.53
2019-01-21T09:11:02.614Z,122.67
2019-01-21T09:14:05.000Z,129.97
2019-01-21T09:17:21.150Z,101.87
2019-01-21T09:20:38.275Z,115.60
2019-01-21T09:23:56.170Z,119.63
2019-01-21T09:27:24.063Z,120.33
2019-01-21T09:30:42.243Z,121.17
2019-01-21T09:34:10.249Z,112.77
2019-01-21T09:37:38.153Z,124.97
2019-01-21T09:40:43.259Z,84.17
2019-01-21T09:43:43.020Z,107.77
2019-01-21T09:46:30.132Z,101.23
2019-01-21T09:48:58.343Z,122.43
2019-01-21T09:51:29.869Z,113.37
2019-01-21T09:54:01.101Z,109.20
2019-01-21T09:56:34.671Z,95.57
2019-01-21T09:59:05.481Z,117.50
2019-01-21T10:01:36.555Z,112.03
2019-01-21T10:04:07.615Z,116.10
2019-01-21T10:06:49.146Z,112.43
2019-01-21T10:09:58.591Z,128.97
2019-01-21T10:13:14.482Z,113.50
2019-01-21T10:16:27.756Z,115.67
2019-01-21T10:19:50.791Z,116.70
2019-01-21T10:23:08.002Z,116.30
2019-01-21T10:26:17.719Z,107.93
2019-01-21T10:29:18.999Z,103.47
2019-01-21T10:32:46.918Z,109.97
2019-01-21T10:36:00.601Z,114.70
2019-01-21T10:39:27.791Z,107.20
2019-01-21T10:42:55.648Z,94.83
2019-01-21T10:45:50.085Z,111.03
2019-01-21T10:48:39.423Z,110.00
2019-01-21T10:51:56.443Z,108.73
2019-01-21T10:55:06.171Z,111.67
2019-01-21T10:58:00.307Z,112.30
2019-01-21T11:01:19.729Z,112.30
2019-01-21T11:04:32.871Z,107.10
2019-01-21T11:07:47.530Z,103.30
2019-01-21T11:10:47.099Z,94.63
2019-01-21T11:14:14.896Z,102.87
2019-01-21T11:17:29.124Z,107.57
2019-01-21T11:20:45.694Z,107.10
2019-01-21T11:24:02.934Z,102.83
2019-01-21T11:27:16.768Z,99.93
2019-01-21T11:30:28.702Z,97.40
2019-01-21T11:33:41.970Z,97.27
2019-01-21T11:37:09.786Z,89.70
2019-01-21T11:40:22.382Z,96.20
2019-01-21T11:43:37.521Z,96.37
2019-01-21T11:47:05.363Z,97.60
2019-01-21T11:50:10.470Z,94.10
2019-01-21T11:53:15.674Z,88.03
2019-01-21T11:56:08.192Z,96.77
2019-01-21T11:59:01.774Z,98.50
2019-01-21T12:02:14.691Z,87.70
2019-01-21T12:05:32.343Z,94.37
2019-01-21T12:08:55.239Z,91.37
2019-01-21T12:11:58.145Z,88.03
2019-01-21T12:15:11.018Z,95.30
2019-01-21T12:18:34.583Z,93.07
2019-01-21T12:22:02.618Z,92.80
2019-01-21T12:24:58.519Z,91.70
2019-01-21T12:28:21.763Z,91.67
2019-01-21T12:31:24.177Z,91.70
2019-01-21T12:34:31.651Z,96.93
2019-01-21T12:37:37.868Z,98.37
2019-01-21T12:40:52.806Z,98.37
2019-01-21T12:44:06.324Z,97.13
2019-01-21T12:46:55.001Z,99.03
2019-01-21T12:50:24.034Z,95.23
2019-01-21T12:53:12.610Z,100.70
2019-01-21T12:56:12.078Z,98.77
2019-01-21T12:59:17.758Z,100.20
2019-01-21T13:02:17.846Z,98.07
2019-01-21T13:05:14.365Z,89.83
2019-01-21T13:08:24.293Z,102.57
2019-01-21T13:11:33.598Z,97.93
2019-01-21T13:14:27.395Z,92.20
2019-01-21T13:17:23.797Z,99.20
2019-01-21T13:20:30.736Z,102.37
2019-01-21T13:23:29.845Z,119.07
2019-01-21T13:26:57.676Z,139.17
2019-01-21T13:29:52.972Z,106.43
2019-01-21T13:33:20.768Z,113.63
2019-01-21T13:36:12.304Z,117.53
2019-01-21T13:39:30.769Z,126.20
2019-01-21T13:42:42.292Z,119.10
2019-01-21T13:45:55.628Z,136.80
2019-01-21T13:48:58.598Z,118.40
2019-01-21T13:52:03.182Z,120.40
2019-01-21T13:55:13.299Z,123.40
2019-01-21T13:58:26.999Z,111.80
2019-01-21T14:01:22.898Z,123.77
2019-01-21T14:04:39.878Z,122.20
2019-01-21T14:07:52.117Z,126.37
2019-01-21T14:10:52.899Z,123.87
2019-01-21T14:13:48.698Z,124.90
2019-01-21T14:17:08.503Z,118.47
2019-01-21T14:20:09.750Z,112.13
2019-01-21T14:23:37.733Z,120.80
2019-01-21T14:27:05.698Z,132.27
2019-01-21T14:29:54.437Z,119.40
2019-01-21T14:32:52.342Z,113.13
2019-01-21T14:36:12.769Z,124.87
2019-01-21T14:39:35.018Z,135.37
2019-01-21T14:42:46.952Z,121.03
2019-01-21T14:46:00.649Z,125.70
2019-01-21T14:49:13.794Z,134.73
2019-01-21T14:52:41.749Z,124.80
2019-01-21T14:55:57.500Z,133.73
2019-01-21T14:58:58.364Z,127.63
2019-01-21T15:01:58.615Z,147.47
2019-01-21T15:05:15.989Z,143.67
2019-01-21T15:08:05.970Z,128.37
2019-01-21T15:11:19.807Z,135.67
2019-01-21T15:14:23.198Z,128.43
2019-01-21T15:17:51.819Z,145.50
2019-01-21T15:21:06.611Z,171.20
2019-01-21T15:24:30.483Z,133.20
2019-01-21T15:27:44.122Z,116.63
2019-01-21T15:31:07.599Z,134.33
2019-01-21T15:34:03.083Z,167.30
2019-01-21T15:37:31.118Z,145.43
2019-01-21T15:40:59.198Z,156.87
2019-01-21T15:44:10.904Z,156.23
2019-01-21T15:47:30.262Z,145.83
2019-01-21T15:50:24.274Z,136.47
2019-01-21T15:53:36.614Z,147.67
2019-01-21T15:56:53.538Z,162.77
2019-01-21T16:00:16.118Z,145.17
2019-01-21T16:03:17.625Z,142.27
2019-01-21T16:06:39.045Z,158.63
2019-01-21T16:10:06.997Z,165.67
2019-01-21T16:13:09.978Z,153.87
2019-01-21T16:16:37.897Z,173.23
2019-01-21T16:19:22.777Z,174.63
2019-01-21T16:22:43.837Z,180.73
2019-01-21T16:25:45.494Z,187.50
2019-01-21T16:28:49.668Z,193.80
2019-01-21T16:31:48.278Z,190.13
2019-01-21T16:35:02.804Z,193.77
2019-01-21T16:37:53.085Z,191.17
2019-01-21T16:41:21.003Z,204.57
2019-01-21T16:43:52.836Z,207.77
2019-01-21T16:46:23.598Z,219.83
2019-01-21T16:48:54.301Z,216.83
2019-01-21T16:51:24.878Z,211.03
2019-01-21T16:53:55.534Z,209.10
2019-01-21T16:56:26.285Z,213.43
2019-01-21T16:58:56.884Z,224.97
2019-01-21T17:01:29.515Z,223.47
2019-01-21T17:04:00.213Z,215.33
2019-01-21T17:06:31.082Z,219.93
2019-01-21T17:09:01.646Z,248.23
2019-01-21T17:11:32.215Z,225.60
2019-01-21T17:14:03.212Z,219.07
2019-01-21T17:16:33.858Z,206.87
2019-01-21T17:19:04.519Z,202.97
2019-01-21T17:24:05.997Z,237.23
2019-01-21T17:26:36.786Z,255.17
2019-01-21T17:29:07.494Z,281.40
2019-01-21T17:31:38.054Z,340.10
2019-01-21T17:34:09.278Z,321.80
2019-01-21T17:36:40.065Z,308.17
2019-01-21T17:39:11.205Z,329.27
2019-01-21T17:41:46.928Z,343.57
2019-01-21T17:44:17.710Z,362.53
2019-01-21T17:46:51.301Z,398.43
2019-01-21T17:49:42.303Z,378.03
2019-01-21T17:52:17.413Z,321.27
2019-01-21T17:54:48.137Z,314.77
2019-01-21T17:57:18.964Z,318.23
2019-01-21T17:59:49.641Z,323.53
2019-01-21T18:02:39.549Z,313.57
2019-01-21T18:05:11.844Z,341.43
2019-01-21T18:07:42.676Z,311.87
2019-01-21T18:10:22.204Z,324.87
2019-01-21T18:12:53.043Z,301.63
2019-01-21T18:15:23.832Z,267.27
2019-01-21T18:17:55.563Z,280.67
2019-01-21T18:20:32.119Z,280.60
2019-01-21T18:23:10.809Z,282.73
2019-01-21T18:25:43.178Z,287.90
2019-01-21T18:28:14.295Z,287.10
2019-01-21T18:30:48.049Z,299.87
2019-01-21T18:33:25.713Z,278.33
2019-01-21T18:35:56.869Z,275.20
2019-01-21T18:38:28.840Z,274.43
2019-01-21T18:41:04.197Z,274.00
2019-01-21T18:43:35.043Z,302.67
2019-01-21T18:46:06.994Z,313.93
2019-01-21T18:48:42.503Z,305.70
2019-01-21T18:51:20.509Z,308.53
2019-01-21T18:53:51.523Z,304.13
2019-01-21T18:56:24.864Z,305.03
2019-01-21T18:59:02.370Z,291.43
2019-01-21T19:01:34.284Z,263.93
2019-01-21T19:04:08.626Z,266.70
2019-01-21T19:06:54.840Z,264.43
2019-01-21T19:09:26.113Z,264.73
2019-01-21T19:11:59.354Z,270.37
2019-01-21T19:14:32.101Z,273.30
2019-01-21T19:17:04.074Z,269.43
2019-01-21T19:19:34.928Z,265.27
2019-01-21T19:22:11.193Z,286.50
2019-01-21T19:24:50.017Z,258.83
2019-01-21T19:27:26.380Z,263.93
2019-01-21T19:29:58.754Z,272.73
2019-01-21T19:32:31.025Z,259.17
2019-01-21T19:35:02.136Z,250.57
2019-01-21T19:37:38.830Z,275.87
2019-01-21T19:40:15.553Z,258.73
2019-01-21T19:42:55.273Z,264.97
2019-01-21T19:45:25.970Z,242.00
2019-01-21T19:47:58.247Z,274.67
2019-01-21T19:50:30.330Z,244.43
2019-01-21T19:53:01.458Z,272.17
2019-01-21T19:55:39.156Z,271.27
2019-01-21T19:58:11.792Z,249.43
2019-01-21T20:00:45.555Z,243.77
2019-01-21T20:03:19.842Z,255.50
2019-01-21T20:05:57.228Z,260.23
2019-01-21T20:08:33.998Z,277.80
2019-01-21T20:11:10.546Z,273.93
2019-01-21T20:13:50.825Z,290.13
2019-01-21T20:16:24.415Z,279.43
2019-01-21T20:18:56.449Z,278.07
2019-01-21T20:21:28.785Z,280.10
2019-01-21T20:24:01.688Z,299.00
2019-01-21T20:26:33.759Z,283.27
2019-01-21T20:29:11.116Z,301.47
2019-01-21T20:31:45.469Z,301.27
2019-01-21T20:34:19.031Z,283.07
2019-01-21T20:36:51.345Z,281.17
2019-01-21T20:39:27.774Z,293.20
2019-01-21T20:42:01.143Z,300.57
2019-01-21T20:44:35.914Z,293.60
2019-01-21T20:47:15.034Z,304.97
2019-01-21T20:49:45.852Z,269.60
2019-01-21T20:52:16.764Z,269.50
2019-01-21T20:54:49.023Z,282.57
2019-01-21T20:57:20.011Z,300.10
2019-01-21T20:59:53.947Z,292.00
2019-01-21T21:02:33.201Z,298.50
2019-01-21T21:05:10.141Z,280.73
2019-01-21T21:07:42.543Z,239.47
2019-01-21T21:10:14.703Z,314.20
2019-01-21T21:12:48.858Z,225.33
2019-01-21T21:15:29.529Z,278.03
2019-01-21T21:18:08.510Z,291.80
2019-01-21T21:20:41.501Z,292.87
2019-01-21T21:23:12.434Z,287.03
2019-01-21T21:25:48.834Z,291.27
2019-01-21T21:28:21.124Z,275.13
2019-01-21T21:30:58.665Z,280.47
2019-01-21T21:33:30.026Z,336.70
2019-01-21T21:36:06.983Z,365.07
2019-01-21T21:38:37.729Z,345.67
2019-01-21T21:41:08.710Z,399.77
2019-01-21T21:43:39.638Z,313.60
2019-01-21T21:46:13.823Z,362.47
2019-01-21T21:48:44.725Z,313.50
2019-01-21T21:51:15.883Z,386.83
2019-01-21T21:53:46.713Z,370.30
2019-01-21T21:56:17.540Z,392.20
2019-01-21T21:58:48.243Z,405.43
2019-01-21T22:01:23.870Z,434.97
2019-01-21T22:03:51.457Z,427.50
2019-01-21T22:06:22.298Z,453.67
2019-01-21T22:08:53.298Z,436.80
2019-01-21T22:11:23.965Z,443.33
2019-01-21T22:13:54.837Z,462.43
2019-01-21T22:16:25.626Z,451.90
2019-01-21T22:18:56.478Z,442.60
2019-01-21T22:21:27.104Z,451.83
2019-01-21T22:23:58.297Z,445.13
2019-01-21T22:26:29.431Z,482.03
2019-01-21T22:28:59.965Z,432.70
2019-01-21T22:31:30.706Z,473.33
2019-01-21T22:34:01.274Z,431.60
2019-01-21T22:36:31.970Z,439.70
2019-01-21T22:39:02.773Z,430.00
2019-01-21T22:41:33.396Z,489.20
2019-01-21T22:44:04.105Z,474.27
2019-01-21T22:46:34.808Z,544.83
2019-01-21T22:49:06.025Z,536.13
2019-01-21T22:51:36.883Z,515.67
2019-01-21T22:54:07.485Z,513.87
2019-01-21T22:56:38.165Z,548.67
2019-01-21T22:59:08.882Z,547.87
2019-01-21T23:01:39.917Z,579.10
2019-01-21T23:04:10.685Z,560.90
2019-01-21T23:06:41.515Z,543.97
2019-01-21T23:09:12.319Z,521.80
2019-01-21T23:11:43.347Z,523.13
2019-01-21T23:14:13.987Z,493.27
2019-01-21T23:16:44.642Z,536.13
2019-01-21T23:19:15.586Z,503.50
2019-01-21T23:21:46.205Z,542.00
2019-01-21T23:24:17.124Z,479.40
2019-01-21T23:26:47.861Z,491.67
2019-01-21T23:29:18.355Z,321.60
2019-01-21T23:31:49.057Z,373.93
2019-01-21T23:34:19.725Z,418.67
2019-01-21T23:36:50.307Z,472.93
2019-01-21T23:39:21.045Z,449.97
2019-01-21T23:41:51.838Z,440.37
2019-01-21T23:44:22.565Z,467.57
2019-01-21T23:46:53.263Z,479.67
2019-01-21T23:49:23.862Z,530.47
2019-01-21T23:51:54.526Z,538.50
2019-01-21T23:54:25.092Z,534.87
2019-01-21T23:56:55.885Z,488.37
2019-01-21T23:59:26.366Z,491.70
